createdAt,value
2022-08-21T00:01:40.817Z,50.15
2022-08-21T00:04:09.244Z,49.95
2022-08-21T00:06:37.438Z,50.10
2022-08-21T00:09:06.935Z,50.14
2022-08-21T00:11:36.085Z,49.85
2022-08-21T00:14:03.961Z,50.14
2022-08-21T00:16:30.831Z,50.19
2022-08-21T00:18:57.423Z,50.05
2022-08-21T00:21:24.072Z,50.27
2022-08-21T00:23:50.853Z,50.04
2022-08-21T00:26:17.457Z,50.08
2022-08-21T00:28:46.684Z,50.27
2022-08-21T00:31:13.867Z,50.70
2022-08-21T00:33:40.505Z,50.63
2022-08-21T00:36:07.377Z,50.91
2022-08-21T00:38:34.218Z,50.58
2022-08-21T00:41:36.881Z,50.72
2022-08-21T00:43:51.370Z,50.43
2022-08-21T00:46:18.064Z,50.93
2022-08-21T00:48:44.723Z,51.18
2022-08-21T00:51:19.668Z,51.83
2022-08-21T00:53:50.649Z,51.23
2022-08-21T00:56:21.994Z,51.36
2022-08-21T00:58:49.869Z,51.15
2022-08-21T01:01:22.150Z,51.16
2022-08-21T01:03:49.283Z,51.57
2022-08-21T01:06:17.717Z,51.88
2022-08-21T01:08:46.798Z,51.36
2022-08-21T01:11:15.581Z,52.08
2022-08-21T01:13:46.926Z,52.42
2022-08-21T01:16:16.566Z,52.46
2022-08-21T01:18:44.123Z,52.22
2022-08-21T01:21:13.013Z,52.25
2022-08-21T01:23:43.039Z,52.28
2022-08-21T01:26:10.368Z,52.31
2022-08-21T01:28:46.808Z,53.12
2022-08-21T01:31:15.991Z,52.88
2022-08-21T01:33:43.552Z,52.89
2022-08-21T01:36:10.645Z,53.09
2022-08-21T01:38:37.267Z,53.15
2022-08-21T01:41:03.845Z,52.96
2022-08-21T01:43:32.418Z,52.30
2022-08-21T01:46:06.156Z,52.52
2022-08-21T01:48:32.842Z,52.32
2022-08-21T01:51:00.325Z,52.54
2022-08-21T01:53:33.318Z,52.65
2022-08-21T01:56:01.033Z,52.09
2022-08-21T01:58:27.746Z,51.77
2022-08-21T02:00:54.614Z,51.84
2022-08-21T02:03:26.356Z,51.80
2022-08-21T02:06:02.912Z,51.43
2022-08-21T02:08:30.104Z,51.49
2022-08-21T02:10:56.718Z,51.65
2022-08-21T02:13:23.280Z,51.47
2022-08-21T02:15:50.112Z,51.68
2022-08-21T02:18:16.802Z,51.33
2022-08-21T02:20:48.678Z,51.45
2022-08-21T02:23:26.804Z,51.29
2022-08-21T02:25:53.938Z,51.29
2022-08-21T02:28:20.503Z,51.35
2022-08-21T02:30:49.191Z,51.24
2022-08-21T02:33:16.485Z,51.45
2022-08-21T02:35:44.708Z,51.23
2022-08-21T02:38:14.086Z,51.29
2022-08-21T02:40:47.968Z,51.23
2022-08-21T02:43:16.351Z,51.06
2022-08-21T02:45:44.782Z,51.13
2022-08-21T02:48:14.597Z,51.44
2022-08-21T02:50:47.672Z,51.50
2022-08-21T02:53:16.643Z,51.10
2022-08-21T02:55:48.346Z,51.23
2022-08-21T02:58:17.649Z,51.44
2022-08-21T03:00:44.810Z,51.39
2022-08-21T03:03:12.868Z,51.68
2022-08-21T03:05:39.509Z,51.67
2022-08-21T03:08:11.332Z,51.78
2022-08-21T03:10:40.837Z,51.70
2022-08-21T03:13:08.242Z,51.61
2022-08-21T03:15:36.096Z,51.62
2022-08-21T03:18:05.676Z,51.48
2022-08-21T03:20:33.569Z,51.34
2022-08-21T03:23:01.210Z,51.63
2022-08-21T03:25:37.980Z,51.58
2022-08-21T03:28:13.420Z,51.85
2022-08-21T03:30:52.203Z,51.88
2022-08-21T03:33:20.425Z,51.65
2022-08-21T03:35:52.892Z,52.09
2022-08-21T03:38:25.852Z,51.56
2022-08-21T03:40:53.377Z,51.71
2022-08-21T03:43:20.299Z,51.73
2022-08-21T03:45:47.087Z,51.81
2022-08-21T03:48:13.899Z,52.00
2022-08-21T03:50:43.383Z,52.35
2022-08-21T03:53:17.295Z,52.21
2022-08-21T03:55:47.595Z,52.14
2022-08-21T03:58:17.499Z,52.16
2022-08-21T04:00:46.783Z,52.02
2022-08-21T04:03:13.542Z,52.23
2022-08-21T04:05:40.239Z,52.16
2022-08-21T04:08:07.760Z,51.99
2022-08-21T04:10:36.503Z,52.01
2022-08-21T04:13:05.034Z,51.81
2022-08-21T04:15:31.731Z,52.02
2022-08-21T04:17:58.327Z,52.17
2022-08-21T04:20:26.042Z,52.20
2022-08-21T04:22:53.498Z,52.31
2022-08-21T04:25:22.253Z,52.78
2022-08-21T04:27:48.919Z,52.42
2022-08-21T04:30:16.535Z,52.72
2022-08-21T04:32:49.674Z,52.87
2022-08-21T04:35:18.798Z,52.71
2022-08-21T04:37:45.540Z,52.77
2022-08-21T04:40:14.813Z,53.14
2022-08-21T04:42:47.564Z,53.44
2022-08-21T04:45:24.055Z,53.16
2022-08-21T04:47:56.190Z,52.87
2022-08-21T04:50:27.498Z,53.17
2022-08-21T04:52:54.567Z,53.03
2022-08-21T04:55:22.427Z,53.15
2022-08-21T04:57:50.934Z,53.06
2022-08-21T05:00:19.968Z,53.35
2022-08-21T05:02:48.719Z,53.28
2022-08-21T05:05:16.988Z,52.90
2022-08-21T05:07:45.529Z,53.23
2022-08-21T05:10:13.807Z,53.53
2022-08-21T05:12:42.998Z,53.37
2022-08-21T05:15:13.434Z,53.36
2022-08-21T05:17:41.845Z,53.62
2022-08-21T05:20:10.373Z,53.75
2022-08-21T05:22:37.115Z,53.45
2022-08-21T05:25:10.244Z,53.70
2022-08-21T05:27:39.596Z,53.86
2022-08-21T05:30:10.691Z,53.72
2022-08-21T05:32:37.602Z,53.38
2022-08-21T05:35:06.971Z,53.78
2022-08-21T05:37:34.392Z,53.48
2022-08-21T05:40:20.792Z,53.75
2022-08-21T05:42:54.696Z,53.81
2022-08-21T05:45:42.176Z,53.22
2022-08-21T05:48:10.879Z,53.41
2022-08-21T05:50:39.648Z,53.46
2022-08-21T05:53:07.761Z,53.71
2022-08-21T05:55:36.476Z,53.31
2022-08-21T05:58:03.408Z,53.61
2022-08-21T06:00:30.051Z,53.64
2022-08-21T06:02:56.896Z,53.91
2022-08-21T06:05:36.383Z,53.85
2022-08-21T06:08:04.139Z,54.03
2022-08-21T06:10:30.838Z,53.88
2022-08-21T06:12:57.590Z,53.91
2022-08-21T06:15:24.362Z,53.58
2022-08-21T06:17:50.964Z,53.95
2022-08-21T06:20:17.550Z,53.92
2022-08-21T06:22:44.164Z,54.06
2022-08-21T06:25:11.242Z,53.28
2022-08-21T06:27:37.989Z,53.14
2022-08-21T06:30:08.413Z,53.15
2022-08-21T06:32:35.820Z,53.03
2022-08-21T06:35:04.962Z,53.05
2022-08-21T06:37:32.218Z,53.01
2022-08-21T06:39:58.839Z,53.12
2022-08-21T06:42:28.289Z,52.89
2022-08-21T06:44:55.264Z,52.74
2022-08-21T06:47:21.894Z,52.73
2022-08-21T06:49:48.482Z,52.72
2022-08-21T06:52:16.859Z,52.45
2022-08-21T06:54:43.792Z,52.56
2022-08-21T06:57:10.361Z,53.00
2022-08-21T06:59:37.054Z,53.05
2022-08-21T07:02:04.592Z,53.21
2022-08-21T07:04:31.325Z,52.88
2022-08-21T07:06:57.874Z,52.09
2022-08-21T07:09:24.972Z,52.50
2022-08-21T07:11:54.206Z,52.89
2022-08-21T07:14:20.821Z,52.86
2022-08-21T07:16:48.472Z,52.87
2022-08-21T07:19:15.237Z,52.87
2022-08-21T07:21:42.047Z,52.81
2022-08-21T07:24:09.023Z,52.66
2022-08-21T07:26:35.885Z,52.50
2022-08-21T07:29:02.559Z,52.32
2022-08-21T07:31:29.761Z,52.38
2022-08-21T07:33:56.520Z,51.97
2022-08-21T07:36:23.811Z,52.37
2022-08-21T07:38:52.672Z,52.60
2022-08-21T07:41:22.681Z,52.75
2022-08-21T07:43:49.755Z,52.48
2022-08-21T07:46:19.858Z,52.32
2022-08-21T07:48:46.495Z,52.42
2022-08-21T07:51:15.556Z,52.34
2022-08-21T07:53:42.763Z,52.02
2022-08-21T07:56:09.809Z,51.96
2022-08-21T07:58:36.497Z,51.81
2022-08-21T08:01:03.455Z,51.75
2022-08-21T08:03:30.224Z,51.23
2022-08-21T08:05:57.900Z,51.79
2022-08-21T08:08:25.560Z,51.61
2022-08-21T08:10:53.766Z,51.47
2022-08-21T08:13:20.393Z,51.22
2022-08-21T08:15:47.087Z,51.26
2022-08-21T08:18:14.898Z,50.69
2022-08-21T08:20:42.225Z,50.46
2022-08-21T08:23:19.733Z,50.23
2022-08-21T08:25:46.337Z,50.52
2022-08-21T08:28:21.297Z,50.02
2022-08-21T08:30:50.283Z,50.40
2022-08-21T08:33:22.164Z,50.45
2022-08-21T08:36:04.658Z,50.04
2022-08-21T08:39:06.053Z,50.15
2022-08-21T08:41:48.406Z,50.63
2022-08-21T08:44:25.384Z,50.32
2022-08-21T08:46:58.602Z,50.23
2022-08-21T08:49:50.673Z,50.06
2022-08-21T08:52:17.172Z,50.22
2022-08-21T08:54:50.268Z,50.18
2022-08-21T08:57:19.955Z,49.69
2022-08-21T08:59:54.243Z,49.33
2022-08-21T09:02:21.980Z,49.43
2022-08-21T09:04:49.664Z,49.58
2022-08-21T09:07:41.188Z,49.02
2022-08-21T09:10:19.340Z,48.38
2022-08-21T09:13:06.239Z,47.26
2022-08-21T09:15:54.379Z,47.59
2022-08-21T09:18:23.928Z,46.93
2022-08-21T09:21:19.180Z,47.03
2022-08-21T09:23:52.224Z,46.58
2022-08-21T09:26:21.697Z,46.74
2022-08-21T09:29:01.726Z,46.73
2022-08-21T09:31:40.118Z,47.01
2022-08-21T09:34:10.979Z,46.78
2022-08-21T09:36:51.511Z,47.11
2022-08-21T09:39:31.785Z,47.34
2022-08-21T09:41:59.986Z,47.35
2022-08-21T09:44:34.496Z,46.67
2022-08-21T09:47:01.609Z,46.12
2022-08-21T09:49:30.596Z,45.66
2022-08-21T09:51:58.539Z,46.18
2022-08-21T09:54:33.615Z,46.42
2022-08-21T09:57:32.240Z,45.93
2022-08-21T10:00:25.543Z,44.82
2022-08-21T10:02:52.077Z,46.18
2022-08-21T10:05:23.934Z,45.95
2022-08-21T10:07:50.963Z,46.32
2022-08-21T10:10:30.419Z,44.74
2022-08-21T10:13:17.669Z,44.84
2022-08-21T10:16:02.771Z,44.52
2022-08-21T10:18:42.423Z,43.99
2022-08-21T10:21:11.879Z,44.42
2022-08-21T10:24:30.504Z,44.44
2022-08-21T10:27:23.298Z,44.14
2022-08-21T10:30:08.064Z,43.46
2022-08-21T10:33:01.039Z,41.72
2022-08-21T10:35:35.092Z,42.32
2022-08-21T10:38:50.459Z,43.25
2022-08-21T10:41:19.735Z,42.09
2022-08-21T10:43:58.291Z,41.86
2022-08-21T10:46:46.599Z,41.06
2022-08-21T10:49:34.268Z,41.35
2022-08-21T10:52:34.447Z,42.45
2022-08-21T10:55:45.574Z,42.02
2022-08-21T10:58:19.467Z,41.26
2022-08-21T11:00:54.646Z,41.85
2022-08-21T11:03:42.178Z,41.33
2022-08-21T11:06:32.790Z,41.88
2022-08-21T11:09:10.531Z,40.75
2022-08-21T11:12:10.858Z,41.23
2022-08-21T11:15:27.053Z,39.17
2022-08-21T11:18:11.316Z,37.05
2022-08-21T11:21:00.219Z,39.32
2022-08-21T11:23:37.359Z,36.96
2022-08-21T11:26:14.538Z,36.46
2022-08-21T11:28:55.407Z,35.90
2022-08-21T11:31:57.109Z,34.66
2022-08-21T11:35:01.258Z,31.64
2022-08-21T11:37:49.840Z,34.59
2022-08-21T11:40:16.423Z,33.58
2022-08-21T11:43:07.830Z,32.39
2022-08-21T11:45:45.456Z,31.84
2022-08-21T11:48:15.021Z,30.88
2022-08-21T11:50:45.088Z,31.28
2022-08-21T11:53:22.179Z,29.11
2022-08-21T11:55:58.124Z,29.64
2022-08-21T11:58:35.815Z,30.45
2022-08-21T12:01:09.749Z,28.81
2022-08-21T12:03:45.895Z,28.43
2022-08-21T12:06:24.225Z,28.18
2022-08-21T12:09:00.419Z,27.58
2022-08-21T12:11:30.518Z,27.43
2022-08-21T12:14:14.424Z,27.34
2022-08-21T12:16:47.530Z,26.11
2022-08-21T12:19:30.510Z,26.72
2022-08-21T12:22:06.311Z,26.97
2022-08-21T12:24:47.902Z,26.31
2022-08-21T12:27:26.588Z,26.17
2022-08-21T12:29:57.558Z,26.34
2022-08-21T12:32:45.680Z,25.91
2022-08-21T12:35:24.776Z,26.75
2022-08-21T12:38:13.497Z,26.96
2022-08-21T12:40:44.030Z,26.06
2022-08-21T12:43:22.682Z,26.00
2022-08-21T12:45:51.950Z,24.73
2022-08-21T12:48:27.385Z,24.38
2022-08-21T12:51:08.196Z,24.38
2022-08-21T12:53:48.642Z,24.89
2022-08-21T12:56:21.662Z,26.27
2022-08-21T12:58:52.469Z,26.78
2022-08-21T13:01:29.289Z,26.24
2022-08-21T13:04:04.300Z,26.05
2022-08-21T13:06:38.546Z,25.92
2022-08-21T13:09:07.699Z,25.02
2022-08-21T13:11:34.990Z,25.73
2022-08-21T13:14:04.942Z,25.65
2022-08-21T13:16:36.176Z,25.27
2022-08-21T13:19:12.966Z,24.79
2022-08-21T13:21:49.732Z,24.84
2022-08-21T13:24:41.753Z,24.99
2022-08-21T13:27:28.017Z,26.97
2022-08-21T13:30:10.646Z,26.06
2022-08-21T13:32:42.501Z,25.19
2022-08-21T13:35:27.215Z,26.60
2022-08-21T13:37:56.599Z,26.38
2022-08-21T13:40:33.824Z,26.20
2022-08-21T13:43:01.528Z,26.39
2022-08-21T13:45:33.821Z,26.10
2022-08-21T13:48:06.623Z,26.19
2022-08-21T13:50:36.761Z,26.24
2022-08-21T13:53:08.915Z,25.98
2022-08-21T13:55:44.712Z,26.26
2022-08-21T13:58:12.871Z,26.57
2022-08-21T14:00:49.756Z,26.40
2022-08-21T14:03:34.795Z,26.62
2022-08-21T14:06:03.785Z,25.99
2022-08-21T14:08:37.757Z,25.87
2022-08-21T14:11:12.944Z,25.14
2022-08-21T14:13:47.605Z,25.34
2022-08-21T14:16:26.686Z,25.73
2022-08-21T14:19:04.169Z,25.61
2022-08-21T14:21:38.208Z,25.27
2022-08-21T14:24:09.891Z,25.46
2022-08-21T14:26:45.292Z,25.91
2022-08-21T14:29:16.426Z,25.92
2022-08-21T14:31:44.177Z,25.94
2022-08-21T14:34:19.118Z,25.90
2022-08-21T14:36:46.627Z,25.96
2022-08-21T14:39:13.256Z,26.03
2022-08-21T14:41:40.174Z,25.64
2022-08-21T14:44:09.600Z,25.25
2022-08-21T14:46:43.959Z,24.67
2022-08-21T14:49:24.274Z,25.01
2022-08-21T14:51:57.749Z,24.61
2022-08-21T14:54:30.896Z,24.55
2022-08-21T14:57:01.648Z,24.66
2022-08-21T14:59:28.611Z,24.36
2022-08-21T15:01:55.203Z,24.70
2022-08-21T15:04:21.747Z,25.29
2022-08-21T15:06:48.326Z,25.50
2022-08-21T15:09:14.885Z,25.08
2022-08-21T15:11:43.187Z,24.78
2022-08-21T15:14:16.661Z,24.29
2022-08-21T15:16:43.274Z,24.34
2022-08-21T15:19:09.824Z,24.49
2022-08-21T15:21:36.409Z,23.41
2022-08-21T15:24:03.306Z,22.86
2022-08-21T15:26:30.022Z,22.38
2022-08-21T15:28:56.580Z,22.17
2022-08-21T15:31:23.148Z,21.97
2022-08-21T15:33:49.680Z,21.95
2022-08-21T15:36:16.276Z,21.63
2022-08-21T15:38:42.855Z,22.07
2022-08-21T15:41:09.564Z,21.61
2022-08-21T15:43:56.692Z,21.51
2022-08-21T15:46:23.460Z,20.88
2022-08-21T15:48:50.061Z,21.32
2022-08-21T15:51:17.718Z,21.61
2022-08-21T15:53:45.468Z,21.64
2022-08-21T15:56:24.379Z,22.33
2022-08-21T15:58:53.285Z,21.78
2022-08-21T16:01:21.694Z,22.12
2022-08-21T16:03:51.480Z,21.93
2022-08-21T16:06:18.061Z,22.12
2022-08-21T16:09:04.434Z,21.82
2022-08-21T16:11:31.082Z,22.06
2022-08-21T16:13:57.768Z,22.11
2022-08-21T16:16:25.234Z,22.29
2022-08-21T16:18:52.647Z,22.46
2022-08-21T16:21:19.744Z,22.91
2022-08-21T16:23:46.468Z,22.72
2022-08-21T16:26:16.007Z,22.38
2022-08-21T16:28:46.502Z,22.80
2022-08-21T16:31:15.467Z,22.89
2022-08-21T16:33:58.087Z,22.62
2022-08-21T16:36:26.400Z,22.42
2022-08-21T16:38:54.782Z,22.73
2022-08-21T16:41:23.437Z,23.43
2022-08-21T16:43:51.877Z,23.32
2022-08-21T16:46:20.672Z,23.49
2022-08-21T16:48:47.604Z,23.52
2022-08-21T16:51:15.549Z,24.14
2022-08-21T16:53:43.667Z,24.31
2022-08-21T16:56:12.486Z,24.86
2022-08-21T16:58:42.677Z,24.77
2022-08-21T17:01:12.721Z,25.44
2022-08-21T17:03:42.621Z,26.04
2022-08-21T17:06:10.165Z,25.95
2022-08-21T17:08:37.110Z,26.67
2022-08-21T17:11:07.559Z,26.83
2022-08-21T17:13:35.166Z,27.60
2022-08-21T17:16:01.829Z,26.99
2022-08-21T17:18:28.408Z,27.16
2022-08-21T17:20:55.165Z,27.60
2022-08-21T17:23:21.854Z,28.33
2022-08-21T17:25:52.903Z,28.79
2022-08-21T17:28:25.817Z,29.70
2022-08-21T17:30:58.795Z,29.34
2022-08-21T17:33:27.435Z,30.18
2022-08-21T17:35:54.148Z,30.33
2022-08-21T17:38:20.852Z,31.06
2022-08-21T17:40:48.679Z,30.84
2022-08-21T17:43:15.863Z,31.68
2022-08-21T17:45:44.521Z,32.01
2022-08-21T17:48:11.499Z,32.80
2022-08-21T17:50:39.219Z,32.87
2022-08-21T17:53:05.818Z,33.32
2022-08-21T17:55:34.013Z,33.32
2022-08-21T17:58:02.350Z,33.91
2022-08-21T18:00:29.801Z,34.15
2022-08-21T18:03:15.124Z,35.40
2022-08-21T18:05:47.082Z,35.50
2022-08-21T18:08:14.994Z,35.64
2022-08-21T18:10:45.465Z,36.40
2022-08-21T18:13:15.742Z,36.85
2022-08-21T18:15:50.106Z,37.15
2022-08-21T18:18:17.204Z,37.12
2022-08-21T18:20:43.893Z,37.05
2022-08-21T18:23:10.786Z,37.32
2022-08-21T18:25:37.405Z,37.42
2022-08-21T18:28:06.932Z,37.66
2022-08-21T18:30:38.611Z,37.82
2022-08-21T18:33:05.592Z,37.45
2022-08-21T18:35:32.682Z,37.71
2022-08-21T18:37:59.368Z,36.89
2022-08-21T18:40:26.281Z,37.33
2022-08-21T18:42:55.817Z,37.44
2022-08-21T18:45:23.698Z,37.87
2022-08-21T18:47:55.885Z,38.31
2022-08-21T18:50:26.564Z,38.39
2022-08-21T18:52:54.476Z,38.41
2022-08-21T18:55:24.549Z,38.57
2022-08-21T18:57:51.743Z,38.27
2022-08-21T19:00:23.555Z,37.70
2022-08-21T19:02:51.428Z,37.73
2022-08-21T19:05:18.883Z,37.48
2022-08-21T19:07:46.125Z,37.24
2022-08-21T19:10:31.157Z,37.35
2022-08-21T19:12:59.692Z,37.32
2022-08-21T19:15:27.097Z,37.38
2022-08-21T19:17:56.334Z,37.51
2022-08-21T19:20:31.596Z,37.97
2022-08-21T19:22:58.358Z,37.87
2022-08-21T19:25:33.446Z,38.15
2022-08-21T19:28:01.804Z,38.37
2022-08-21T19:30:28.854Z,38.94
2022-08-21T19:32:55.678Z,39.12
2022-08-21T19:35:23.243Z,39.64
2022-08-21T19:37:49.883Z,39.76
2022-08-21T19:40:19.215Z,39.84
2022-08-21T19:42:49.155Z,40.00
2022-08-21T19:45:15.840Z,40.51
2022-08-21T19:47:47.194Z,41.56
2022-08-21T19:50:17.787Z,41.01
2022-08-21T19:52:55.674Z,41.02
2022-08-21T19:58:22.645Z,42.58
2022-08-21T20:00:49.439Z,41.36
2022-08-21T20:03:17.888Z,40.96
2022-08-21T20:05:48.054Z,41.46
2022-08-21T20:08:20.171Z,41.64
2022-08-21T20:10:47.715Z,41.82
2022-08-21T20:13:18.083Z,42.12
2022-08-21T20:15:45.609Z,41.95
2022-08-21T20:18:12.253Z,42.43
2022-08-21T20:20:38.840Z,41.91
2022-08-21T20:23:10.898Z,42.40
2022-08-21T20:25:39.402Z,43.14
2022-08-21T20:28:06.811Z,43.47
2022-08-21T20:30:34.889Z,42.85
2022-08-21T20:33:01.595Z,43.27
2022-08-21T20:35:28.428Z,43.30
2022-08-21T20:40:43.658Z,43.44
2022-08-21T20:43:12.816Z,43.71
2022-08-21T20:45:40.823Z,43.48
2022-08-21T20:48:19.293Z,43.68
2022-08-21T20:50:55.271Z,44.12
2022-08-21T20:53:53.880Z,43.91
2022-08-21T20:56:35.177Z,43.83
2022-08-21T20:59:16.529Z,44.16
2022-08-21T21:01:47.842Z,44.38
2022-08-21T21:04:36.848Z,44.67
2022-08-21T21:07:09.261Z,44.72
2022-08-21T21:09:42.189Z,45.60
2022-08-21T21:12:27.889Z,46.01
2022-08-21T21:14:59.602Z,46.13
2022-08-21T21:20:34.996Z,46.27
2022-08-21T21:23:16.533Z,45.68
2022-08-21T21:26:05.448Z,45.91
2022-08-21T21:29:10.611Z,45.27
2022-08-21T21:31:37.787Z,45.42
2022-08-21T21:34:04.669Z,45.75
2022-08-21T21:36:56.022Z,46.15
2022-08-21T21:39:41.602Z,46.17
2022-08-21T21:42:41.589Z,46.52
2022-08-21T21:45:25.881Z,47.04
2022-08-21T21:47:58.584Z,47.14
2022-08-21T21:50:51.484Z,46.82
2022-08-21T21:53:26.447Z,46.89
2022-08-21T21:56:27.552Z,47.57
2022-08-21T21:59:13.098Z,47.05
2022-08-21T22:01:55.976Z,47.67
2022-08-21T22:04:31.740Z,48.01
2022-08-21T22:07:37.576Z,47.42
2022-08-21T22:13:10.076Z,47.76
2022-08-21T22:15:37.881Z,47.99
2022-08-21T22:18:21.469Z,48.63
2022-08-21T22:21:03.498Z,48.59
2022-08-21T22:23:42.346Z,48.93
2022-08-21T22:26:13.641Z,48.90
2022-08-21T22:28:43.824Z,48.96
2022-08-21T22:31:13.153Z,48.99
2022-08-21T22:33:41.381Z,48.83
2022-08-21T22:36:20.741Z,49.22
2022-08-21T22:38:47.361Z,48.73
2022-08-21T22:41:18.052Z,48.90
2022-08-21T22:43:56.449Z,49.51
2022-08-21T22:46:36.737Z,49.32
2022-08-21T22:49:08.956Z,49.65
2022-08-21T22:51:40.500Z,49.05
2022-08-21T22:54:16.779Z,49.32
2022-08-21T22:57:03.552Z,50.25
2022-08-21T22:59:41.693Z,49.89
2022-08-21T23:02:37.196Z,49.76
2022-08-21T23:05:17.294Z,49.95
2022-08-21T23:07:49.902Z,49.74
2022-08-21T23:10:34.175Z,49.92
2022-08-21T23:13:09.172Z,50.45
2022-08-21T23:15:53.079Z,50.74
2022-08-21T23:18:37.898Z,48.49
2022-08-21T23:21:20.974Z,49.63
2022-08-21T23:24:29.436Z,49.65
2022-08-21T23:27:20.771Z,50.21
2022-08-21T23:29:54.899Z,50.60
2022-08-21T23:32:40.711Z,50.26
2022-08-21T23:35:47.517Z,50.69
2022-08-21T23:38:28.944Z,50.76
2022-08-21T23:41:03.909Z,51.22
2022-08-21T23:43:47.311Z,51.20
2022-08-21T23:46:34.724Z,50.56
2022-08-21T23:49:06.734Z,51.08
2022-08-21T23:51:57.373Z,51.44
2022-08-21T23:54:30.005Z,51.00
2022-08-21T23:57:11.460Z,51.45
2022-08-21T23:59:40.701Z,50.85
